sensor_id;sensor_type;location;lat;lon;timestamp;P1;durP1;ratioP1;P2;durP2;ratioP2
35376;SDS011;21480;51.642;4.834;2022-11-14T00:00:11;143.53;;;129.27;;
35376;SDS011;21480;51.642;4.834;2022-11-14T00:02:38;143.77;;;129.93;;
35376;SDS011;21480;51.642;4.834;2022-11-14T00:05:04;142.13;;;128.67;;
35376;SDS011;21480;51.642;4.834;2022-11-14T00:07:32;143.53;;;129.90;;
35376;SDS011;21480;51.642;4.834;2022-11-14T00:09:58;141.00;;;128.10;;
35376;SDS011;21480;51.642;4.834;2022-11-14T00:12:24;139.33;;;126.13;;
35376;SDS011;21480;51.642;4.834;2022-11-14T00:14:50;138.40;;;125.73;;
35376;SDS011;21480;51.642;4.834;2022-11-14T00:17:17;137.70;;;125.00;;
35376;SDS011;21480;51.642;4.834;2022-11-14T00:19:43;139.93;;;127.03;;
35376;SDS011;21480;51.642;4.834;2022-11-14T00:22:08;139.43;;;126.50;;
35376;SDS011;21480;51.642;4.834;2022-11-14T00:24:34;139.67;;;127.27;;
35376;SDS011;21480;51.642;4.834;2022-11-14T00:27:00;138.40;;;125.77;;
35376;SDS011;21480;51.642;4.834;2022-11-14T00:29:26;138.47;;;125.90;;
35376;SDS011;21480;51.642;4.834;2022-11-14T00:31:52;138.33;;;125.47;;
35376;SDS011;21480;51.642;4.834;2022-11-14T00:34:17;139.40;;;126.60;;
35376;SDS011;21480;51.642;4.834;2022-11-14T00:36:43;137.77;;;125.30;;
35376;SDS011;21480;51.642;4.834;2022-11-14T00:39:12;137.53;;;124.80;;
35376;SDS011;21480;51.642;4.834;2022-11-14T00:41:39;139.67;;;127.17;;
35376;SDS011;21480;51.642;4.834;2022-11-14T00:44:05;135.53;;;123.53;;
35376;SDS011;21480;51.642;4.834;2022-11-14T00:46:31;136.13;;;123.83;;
35376;SDS011;21480;51.642;4.834;2022-11-14T00:48:57;135.37;;;123.47;;
35376;SDS011;21480;51.642;4.834;2022-11-14T00:51:22;136.27;;;124.10;;
35376;SDS011;21480;51.642;4.834;2022-11-14T00:53:48;134.93;;;123.07;;
35376;SDS011;21480;51.642;4.834;2022-11-14T00:56:14;136.80;;;124.30;;
35376;SDS011;21480;51.642;4.834;2022-11-14T00:58:39;135.73;;;123.97;;
35376;SDS011;21480;51.642;4.834;2022-11-14T01:01:05;133.83;;;121.83;;
35376;SDS011;21480;51.642;4.834;2022-11-14T01:03:31;134.20;;;122.57;;
35376;SDS011;21480;51.642;4.834;2022-11-14T01:05:56;132.83;;;121.30;;
35376;SDS011;21480;51.642;4.834;2022-11-14T01:08:27;132.90;;;121.43;;
35376;SDS011;21480;51.642;4.834;2022-11-14T01:10:53;134.00;;;122.13;;
35376;SDS011;21480;51.642;4.834;2022-11-14T01:13:18;133.43;;;121.93;;
35376;SDS011;21480;51.642;4.834;2022-11-14T01:15:45;134.77;;;123.13;;
35376;SDS011;21480;51.642;4.834;2022-11-14T01:18:16;131.63;;;120.23;;
35376;SDS011;21480;51.642;4.834;2022-11-14T01:20:44;134.43;;;122.70;;
35376;SDS011;21480;51.642;4.834;2022-11-14T01:23:12;132.60;;;121.07;;
35376;SDS011;21480;51.642;4.834;2022-11-14T01:25:39;133.17;;;121.80;;
35376;SDS011;21480;51.642;4.834;2022-11-14T01:28:10;134.17;;;122.47;;
35376;SDS011;21480;51.642;4.834;2022-11-14T01:30:37;134.83;;;122.60;;
35376;SDS011;21480;51.642;4.834;2022-11-14T01:33:04;133.67;;;122.27;;
35376;SDS011;21480;51.642;4.834;2022-11-14T01:35:31;133.37;;;121.83;;
35376;SDS011;21480;51.642;4.834;2022-11-14T01:38:01;133.77;;;122.37;;
35376;SDS011;21480;51.642;4.834;2022-11-14T01:40:27;132.83;;;121.43;;
35376;SDS011;21480;51.642;4.834;2022-11-14T01:48:25;130.07;;;118.90;;
35376;SDS011;21480;51.642;4.834;2022-11-14T01:51:26;130.10;;;119.20;;
35376;SDS011;21480;51.642;4.834;2022-11-14T01:53:57;129.87;;;118.80;;
35376;SDS011;21480;51.642;4.834;2022-11-14T01:56:27;130.00;;;118.60;;
35376;SDS011;21480;51.642;4.834;2022-11-14T01:58:58;130.33;;;119.23;;
35376;SDS011;21480;51.642;4.834;2022-11-14T02:01:31;130.10;;;118.70;;
35376;SDS011;21480;51.642;4.834;2022-11-14T02:04:01;130.00;;;118.97;;
35376;SDS011;21480;51.642;4.834;2022-11-14T02:06:30;132.20;;;121.10;;
35376;SDS011;21480;51.642;4.834;2022-11-14T02:08:56;129.67;;;118.77;;
35376;SDS011;21480;51.642;4.834;2022-11-14T02:11:27;130.00;;;118.70;;
35376;SDS011;21480;51.642;4.834;2022-11-14T02:13:55;131.90;;;120.73;;
35376;SDS011;21480;51.642;4.834;2022-11-14T02:16:23;131.23;;;120.03;;
35376;SDS011;21480;51.642;4.834;2022-11-14T02:18:50;134.50;;;122.90;;
35376;SDS011;21480;51.642;4.834;2022-11-14T02:21:15;130.80;;;119.80;;
35376;SDS011;21480;51.642;4.834;2022-11-14T02:23:41;131.77;;;120.57;;
35376;SDS011;21480;51.642;4.834;2022-11-14T02:26:07;129.33;;;118.27;;
35376;SDS011;21480;51.642;4.834;2022-11-14T02:28:32;133.13;;;121.73;;
35376;SDS011;21480;51.642;4.834;2022-11-14T02:30:58;132.47;;;120.80;;
35376;SDS011;21480;51.642;4.834;2022-11-14T02:33:24;130.63;;;119.73;;
35376;SDS011;21480;51.642;4.834;2022-11-14T02:35:49;130.93;;;119.90;;
35376;SDS011;21480;51.642;4.834;2022-11-14T02:38:15;129.37;;;118.00;;
35376;SDS011;21480;51.642;4.834;2022-11-14T02:40:41;128.20;;;117.37;;
35376;SDS011;21480;51.642;4.834;2022-11-14T02:43:07;128.90;;;118.13;;
35376;SDS011;21480;51.642;4.834;2022-11-14T02:45:33;130.00;;;118.97;;
35376;SDS011;21480;51.642;4.834;2022-11-14T02:47:58;131.63;;;120.57;;
35376;SDS011;21480;51.642;4.834;2022-11-14T02:50:24;129.57;;;118.70;;
35376;SDS011;21480;51.642;4.834;2022-11-14T02:52:50;131.43;;;120.03;;
35376;SDS011;21480;51.642;4.834;2022-11-14T02:55:17;129.70;;;118.53;;
35376;SDS011;21480;51.642;4.834;2022-11-14T02:57:44;130.13;;;119.23;;
35376;SDS011;21480;51.642;4.834;2022-11-14T03:00:10;131.90;;;120.77;;
35376;SDS011;21480;51.642;4.834;2022-11-14T03:02:36;129.50;;;118.63;;
35376;SDS011;21480;51.642;4.834;2022-11-14T03:05:01;128.93;;;118.10;;
35376;SDS011;21480;51.642;4.834;2022-11-14T03:07:27;132.23;;;121.00;;
35376;SDS011;21480;51.642;4.834;2022-11-14T03:09:53;130.50;;;119.43;;
35376;SDS011;21480;51.642;4.834;2022-11-14T03:12:19;130.93;;;119.43;;
35376;SDS011;21480;51.642;4.834;2022-11-14T03:14:44;130.50;;;119.27;;
35376;SDS011;21480;51.642;4.834;2022-11-14T03:17:10;131.00;;;119.40;;
35376;SDS011;21480;51.642;4.834;2022-11-14T03:19:36;130.83;;;119.73;;
35376;SDS011;21480;51.642;4.834;2022-11-14T03:22:02;132.30;;;121.03;;
35376;SDS011;21480;51.642;4.834;2022-11-14T03:24:28;130.63;;;119.67;;
35376;SDS011;21480;51.642;4.834;2022-11-14T03:26:54;130.53;;;119.43;;
35376;SDS011;21480;51.642;4.834;2022-11-14T03:29:20;130.07;;;119.27;;
35376;SDS011;21480;51.642;4.834;2022-11-14T03:31:45;131.57;;;120.13;;
35376;SDS011;21480;51.642;4.834;2022-11-14T03:34:11;131.53;;;120.43;;
35376;SDS011;21480;51.642;4.834;2022-11-14T03:36:37;128.90;;;117.97;;
35376;SDS011;21480;51.642;4.834;2022-11-14T03:39:03;132.43;;;121.17;;
35376;SDS011;21480;51.642;4.834;2022-11-14T03:41:29;129.43;;;118.33;;
35376;SDS011;21480;51.642;4.834;2022-11-14T03:43:55;131.33;;;120.33;;
35376;SDS011;21480;51.642;4.834;2022-11-14T03:46:21;130.27;;;119.20;;
35376;SDS011;21480;51.642;4.834;2022-11-14T03:48:47;128.40;;;117.57;;
35376;SDS011;21480;51.642;4.834;2022-11-14T03:51:12;128.70;;;117.90;;
35376;SDS011;21480;51.642;4.834;2022-11-14T03:53:38;130.10;;;118.27;;
35376;SDS011;21480;51.642;4.834;2022-11-14T03:56:04;129.87;;;118.63;;
35376;SDS011;21480;51.642;4.834;2022-11-14T03:58:30;128.43;;;117.83;;
35376;SDS011;21480;51.642;4.834;2022-11-14T04:00:55;129.57;;;118.63;;
35376;SDS011;21480;51.642;4.834;2022-11-14T04:03:21;129.43;;;118.67;;
35376;SDS011;21480;51.642;4.834;2022-11-14T04:05:48;129.17;;;118.13;;
35376;SDS011;21480;51.642;4.834;2022-11-14T04:08:14;129.83;;;118.83;;
35376;SDS011;21480;51.642;4.834;2022-11-14T04:10:40;127.67;;;117.17;;
35376;SDS011;21480;51.642;4.834;2022-11-14T04:13:06;130.43;;;118.57;;
35376;SDS011;21480;51.642;4.834;2022-11-14T04:15:32;128.67;;;117.77;;
35376;SDS011;21480;51.642;4.834;2022-11-14T04:17:58;129.73;;;118.90;;
35376;SDS011;21480;51.642;4.834;2022-11-14T04:20:24;128.23;;;117.27;;
35376;SDS011;21480;51.642;4.834;2022-11-14T04:22:49;127.53;;;116.90;;
35376;SDS011;21480;51.642;4.834;2022-11-14T04:25:15;126.77;;;116.17;;
35376;SDS011;21480;51.642;4.834;2022-11-14T04:27:41;128.00;;;116.70;;
35376;SDS011;21480;51.642;4.834;2022-11-14T04:30:07;130.73;;;119.50;;
35376;SDS011;21480;51.642;4.834;2022-11-14T04:32:33;127.03;;;116.33;;
35376;SDS011;21480;51.642;4.834;2022-11-14T04:34:59;129.50;;;118.33;;
35376;SDS011;21480;51.642;4.834;2022-11-14T04:37:25;127.80;;;116.70;;
35376;SDS011;21480;51.642;4.834;2022-11-14T04:39:51;128.47;;;117.57;;
35376;SDS011;21480;51.642;4.834;2022-11-14T04:42:16;127.23;;;116.50;;
35376;SDS011;21480;51.642;4.834;2022-11-14T04:44:42;127.87;;;116.97;;
35376;SDS011;21480;51.642;4.834;2022-11-14T04:47:08;128.37;;;117.87;;
35376;SDS011;21480;51.642;4.834;2022-11-14T04:49:33;126.17;;;115.70;;
35376;SDS011;21480;51.642;4.834;2022-11-14T04:51:59;128.63;;;117.60;;
35376;SDS011;21480;51.642;4.834;2022-11-14T04:54:25;128.10;;;117.03;;
35376;SDS011;21480;51.642;4.834;2022-11-14T04:56:51;127.57;;;116.60;;
35376;SDS011;21480;51.642;4.834;2022-11-14T04:59:20;128.50;;;117.70;;
35376;SDS011;21480;51.642;4.834;2022-11-14T05:01:45;128.07;;;116.73;;
35376;SDS011;21480;51.642;4.834;2022-11-14T05:04:11;127.33;;;116.43;;
35376;SDS011;21480;51.642;4.834;2022-11-14T05:06:37;128.17;;;117.27;;
35376;SDS011;21480;51.642;4.834;2022-11-14T05:09:02;129.80;;;118.70;;
35376;SDS011;21480;51.642;4.834;2022-11-14T05:11:28;129.17;;;118.27;;
35376;SDS011;21480;51.642;4.834;2022-11-14T05:13:54;129.50;;;118.57;;
35376;SDS011;21480;51.642;4.834;2022-11-14T05:16:20;128.07;;;117.30;;
35376;SDS011;21480;51.642;4.834;2022-11-14T05:18:45;128.37;;;117.37;;
35376;SDS011;21480;51.642;4.834;2022-11-14T05:21:12;129.97;;;119.07;;
35376;SDS011;21480;51.642;4.834;2022-11-14T05:23:38;128.57;;;117.57;;
35376;SDS011;21480;51.642;4.834;2022-11-14T05:26:05;129.67;;;118.53;;
35376;SDS011;21480;51.642;4.834;2022-11-14T05:28:32;127.20;;;116.50;;
35376;SDS011;21480;51.642;4.834;2022-11-14T05:33:27;128.67;;;117.23;;
35376;SDS011;21480;51.642;4.834;2022-11-14T05:35:53;127.67;;;116.63;;
35376;SDS011;21480;51.642;4.834;2022-11-14T05:38:18;129.00;;;117.63;;
35376;SDS011;21480;51.642;4.834;2022-11-14T05:40:44;129.50;;;118.17;;
35376;SDS011;21480;51.642;4.834;2022-11-14T05:43:10;130.33;;;119.23;;
35376;SDS011;21480;51.642;4.834;2022-11-14T05:45:35;130.27;;;119.20;;
35376;SDS011;21480;51.642;4.834;2022-11-14T05:48:01;129.90;;;118.70;;
35376;SDS011;21480;51.642;4.834;2022-11-14T05:50:27;128.50;;;117.27;;
35376;SDS011;21480;51.642;4.834;2022-11-14T05:52:53;131.20;;;119.50;;
35376;SDS011;21480;51.642;4.834;2022-11-14T05:55:20;130.83;;;119.40;;
35376;SDS011;21480;51.642;4.834;2022-11-14T05:57:45;128.67;;;117.57;;
35376;SDS011;21480;51.642;4.834;2022-11-14T06:00:11;129.53;;;118.77;;
35376;SDS011;21480;51.642;4.834;2022-11-14T06:02:37;127.13;;;116.37;;
35376;SDS011;21480;51.642;4.834;2022-11-14T06:05:03;128.60;;;117.57;;
35376;SDS011;21480;51.642;4.834;2022-11-14T06:07:29;128.73;;;117.60;;
35376;SDS011;21480;51.642;4.834;2022-11-14T06:09:55;128.63;;;117.50;;
35376;SDS011;21480;51.642;4.834;2022-11-14T06:12:20;130.87;;;119.47;;
35376;SDS011;21480;51.642;4.834;2022-11-14T06:14:46;129.57;;;118.30;;
35376;SDS011;21480;51.642;4.834;2022-11-14T06:17:12;130.30;;;118.83;;
35376;SDS011;21480;51.642;4.834;2022-11-14T06:19:37;128.50;;;116.93;;
35376;SDS011;21480;51.642;4.834;2022-11-14T06:22:03;130.47;;;118.33;;
35376;SDS011;21480;51.642;4.834;2022-11-14T06:24:29;131.50;;;119.57;;
35376;SDS011;21480;51.642;4.834;2022-11-14T06:26:54;128.90;;;117.50;;
35376;SDS011;21480;51.642;4.834;2022-11-14T06:29:20;130.27;;;118.87;;
35376;SDS011;21480;51.642;4.834;2022-11-14T06:31:46;127.03;;;116.07;;
35376;SDS011;21480;51.642;4.834;2022-11-14T06:34:12;129.43;;;118.43;;
35376;SDS011;21480;51.642;4.834;2022-11-14T06:36:37;128.27;;;117.03;;
35376;SDS011;21480;51.642;4.834;2022-11-14T06:39:03;128.73;;;117.70;;
35376;SDS011;21480;51.642;4.834;2022-11-14T06:41:29;127.47;;;116.70;;
35376;SDS011;21480;51.642;4.834;2022-11-14T06:43:55;128.57;;;117.10;;
35376;SDS011;21480;51.642;4.834;2022-11-14T06:46:21;127.37;;;116.07;;
35376;SDS011;21480;51.642;4.834;2022-11-14T06:48:47;126.97;;;115.23;;
35376;SDS011;21480;51.642;4.834;2022-11-14T06:51:14;130.37;;;118.77;;
35376;SDS011;21480;51.642;4.834;2022-11-14T06:53:41;125.70;;;114.80;;
35376;SDS011;21480;51.642;4.834;2022-11-14T06:56:11;129.67;;;118.10;;
35376;SDS011;21480;51.642;4.834;2022-11-14T06:58:40;128.93;;;117.63;;
35376;SDS011;21480;51.642;4.834;2022-11-14T07:01:12;128.20;;;117.07;;
35376;SDS011;21480;51.642;4.834;2022-11-14T07:03:40;130.17;;;118.10;;
35376;SDS011;21480;51.642;4.834;2022-11-14T07:06:07;128.03;;;116.87;;
35376;SDS011;21480;51.642;4.834;2022-11-14T07:08:37;130.87;;;118.53;;
35376;SDS011;21480;51.642;4.834;2022-11-14T07:11:04;131.47;;;119.87;;
35376;SDS011;21480;51.642;4.834;2022-11-14T07:13:32;132.40;;;120.80;;
35376;SDS011;21480;51.642;4.834;2022-11-14T07:15:58;129.93;;;118.80;;
35376;SDS011;21480;51.642;4.834;2022-11-14T07:18:25;129.23;;;117.80;;
35376;SDS011;21480;51.642;4.834;2022-11-14T07:20:58;128.90;;;117.40;;
35376;SDS011;21480;51.642;4.834;2022-11-14T07:23:25;130.17;;;118.90;;
35376;SDS011;21480;51.642;4.834;2022-11-14T07:25:51;129.47;;;117.77;;
35376;SDS011;21480;51.642;4.834;2022-11-14T07:28:17;129.07;;;118.13;;
35376;SDS011;21480;51.642;4.834;2022-11-14T07:30:43;131.50;;;120.03;;
35376;SDS011;21480;51.642;4.834;2022-11-14T07:33:09;128.50;;;117.50;;
35376;SDS011;21480;51.642;4.834;2022-11-14T07:35:38;129.53;;;118.23;;
35376;SDS011;21480;51.642;4.834;2022-11-14T07:38:04;130.20;;;118.50;;
35376;SDS011;21480;51.642;4.834;2022-11-14T07:40:30;131.37;;;119.63;;
35376;SDS011;21480;51.642;4.834;2022-11-14T07:42:56;130.00;;;118.43;;
35376;SDS011;21480;51.642;4.834;2022-11-14T07:45:26;131.93;;;120.23;;
35376;SDS011;21480;51.642;4.834;2022-11-14T07:47:56;130.00;;;118.57;;
35376;SDS011;21480;51.642;4.834;2022-11-14T07:50:26;132.97;;;121.27;;
35376;SDS011;21480;51.642;4.834;2022-11-14T07:52:53;133.07;;;121.20;;
35376;SDS011;21480;51.642;4.834;2022-11-14T07:55:21;133.03;;;121.00;;
35376;SDS011;21480;51.642;4.834;2022-11-14T07:57:50;132.83;;;121.03;;
35376;SDS011;21480;51.642;4.834;2022-11-14T08:00:17;135.27;;;122.67;;
35376;SDS011;21480;51.642;4.834;2022-11-14T08:02:44;133.87;;;122.07;;
35376;SDS011;21480;51.642;4.834;2022-11-14T08:05:11;131.23;;;119.53;;
35376;SDS011;21480;51.642;4.834;2022-11-14T08:07:36;132.40;;;120.33;;
35376;SDS011;21480;51.642;4.834;2022-11-14T08:10:03;131.23;;;119.90;;
35376;SDS011;21480;51.642;4.834;2022-11-14T08:12:29;134.47;;;122.07;;
35376;SDS011;21480;51.642;4.834;2022-11-14T08:14:54;132.33;;;120.63;;
35376;SDS011;21480;51.642;4.834;2022-11-14T08:17:21;133.63;;;121.63;;
35376;SDS011;21480;51.642;4.834;2022-11-14T08:19:46;134.93;;;122.37;;
35376;SDS011;21480;51.642;4.834;2022-11-14T08:22:12;133.17;;;121.40;;
35376;SDS011;21480;51.642;4.834;2022-11-14T08:24:38;132.27;;;120.27;;
35376;SDS011;21480;51.642;4.834;2022-11-14T08:27:03;132.97;;;120.87;;
35376;SDS011;21480;51.642;4.834;2022-11-14T08:29:29;130.17;;;119.07;;
35376;SDS011;21480;51.642;4.834;2022-11-14T08:31:55;129.40;;;118.53;;
35376;SDS011;21480;51.642;4.834;2022-11-14T08:34:20;130.40;;;118.87;;
35376;SDS011;21480;51.642;4.834;2022-11-14T08:36:47;129.27;;;118.37;;
35376;SDS011;21480;51.642;4.834;2022-11-14T08:39:13;126.67;;;116.00;;
35376;SDS011;21480;51.642;4.834;2022-11-14T08:41:45;125.90;;;115.30;;
35376;SDS011;21480;51.642;4.834;2022-11-14T08:44:11;125.67;;;115.27;;
35376;SDS011;21480;51.642;4.834;2022-11-14T08:46:37;127.43;;;116.70;;
35376;SDS011;21480;51.642;4.834;2022-11-14T08:49:02;127.57;;;116.57;;
35376;SDS011;21480;51.642;4.834;2022-11-14T08:51:28;129.27;;;118.30;;
35376;SDS011;21480;51.642;4.834;2022-11-14T08:53:54;128.17;;;117.63;;
35376;SDS011;21480;51.642;4.834;2022-11-14T08:56:20;125.23;;;115.10;;
35376;SDS011;21480;51.642;4.834;2022-11-14T08:58:46;126.07;;;115.73;;
35376;SDS011;21480;51.642;4.834;2022-11-14T09:01:11;127.30;;;116.63;;
35376;SDS011;21480;51.642;4.834;2022-11-14T09:03:37;127.50;;;116.93;;
35376;SDS011;21480;51.642;4.834;2022-11-14T09:06:03;126.70;;;116.30;;
35376;SDS011;21480;51.642;4.834;2022-11-14T09:08:29;127.73;;;117.00;;
35376;SDS011;21480;51.642;4.834;2022-11-14T09:10:58;128.30;;;117.53;;
35376;SDS011;21480;51.642;4.834;2022-11-14T09:13:24;127.67;;;117.20;;
35376;SDS011;21480;51.642;4.834;2022-11-14T09:15:51;126.90;;;116.07;;
35376;SDS011;21480;51.642;4.834;2022-11-14T09:18:17;126.10;;;115.50;;
35376;SDS011;21480;51.642;4.834;2022-11-14T09:20:43;126.83;;;116.03;;
35376;SDS011;21480;51.642;4.834;2022-11-14T09:23:09;125.73;;;115.23;;
35376;SDS011;21480;51.642;4.834;2022-11-14T09:25:35;128.40;;;117.60;;
35376;SDS011;21480;51.642;4.834;2022-11-14T09:28:07;126.10;;;115.53;;
35376;SDS011;21480;51.642;4.834;2022-11-14T09:30:34;127.77;;;117.10;;
35376;SDS011;21480;51.642;4.834;2022-11-14T09:33:02;126.30;;;115.60;;
35376;SDS011;21480;51.642;4.834;2022-11-14T09:35:28;127.93;;;116.97;;
35376;SDS011;21480;51.642;4.834;2022-11-14T09:38:02;125.13;;;114.47;;
35376;SDS011;21480;51.642;4.834;2022-11-14T09:40:30;127.50;;;117.00;;
35376;SDS011;21480;51.642;4.834;2022-11-14T09:43:12;125.67;;;115.53;;
35376;SDS011;21480;51.642;4.834;2022-11-14T09:45:58;129.03;;;118.17;;
35376;SDS011;21480;51.642;4.834;2022-11-14T09:48:26;126.60;;;116.40;;
35376;SDS011;21480;51.642;4.834;2022-11-14T09:53:31;125.60;;;115.57;;
35376;SDS011;21480;51.642;4.834;2022-11-14T09:56:00;127.10;;;116.30;;
35376;SDS011;21480;51.642;4.834;2022-11-14T09:58:26;127.20;;;117.00;;
35376;SDS011;21480;51.642;4.834;2022-11-14T10:00:57;126.00;;;115.70;;
35376;SDS011;21480;51.642;4.834;2022-11-14T10:11:51;125.30;;;115.27;;
35376;SDS011;21480;51.642;4.834;2022-11-14T10:36:48;126.77;;;116.37;;
35376;SDS011;21480;51.642;4.834;2022-11-14T10:39:38;128.63;;;118.30;;
35376;SDS011;21480;51.642;4.834;2022-11-14T10:42:17;127.87;;;117.60;;
35376;SDS011;21480;51.642;4.834;2022-11-14T10:45:02;125.90;;;115.77;;
35376;SDS011;21480;51.642;4.834;2022-11-14T10:47:36;128.80;;;118.10;;
35376;SDS011;21480;51.642;4.834;2022-11-14T10:50:18;128.17;;;117.43;;
35376;SDS011;21480;51.642;4.834;2022-11-14T10:52:51;125.97;;;115.73;;
35376;SDS011;21480;51.642;4.834;2022-11-14T10:55:25;126.77;;;116.50;;
35376;SDS011;21480;51.642;4.834;2022-11-14T10:57:50;126.77;;;116.57;;
35376;SDS011;21480;51.642;4.834;2022-11-14T11:00:17;127.10;;;116.97;;
35376;SDS011;21480;51.642;4.834;2022-11-14T11:05:15;125.47;;;115.23;;
35376;SDS011;21480;51.642;4.834;2022-11-14T11:07:45;127.33;;;117.33;;
35376;SDS011;21480;51.642;4.834;2022-11-14T11:10:31;125.03;;;115.23;;
35376;SDS011;21480;51.642;4.834;2022-11-14T11:13:30;125.43;;;115.20;;
35376;SDS011;21480;51.642;4.834;2022-11-14T11:16:12;124.90;;;115.10;;
35376;SDS011;21480;51.642;4.834;2022-11-14T11:18:38;126.90;;;117.07;;
35376;SDS011;21480;51.642;4.834;2022-11-14T11:23:34;124.43;;;114.80;;
35376;SDS011;21480;51.642;4.834;2022-11-14T11:26:23;125.57;;;115.63;;
35376;SDS011;21480;51.642;4.834;2022-11-14T11:31:51;126.93;;;117.13;;
35376;SDS011;21480;51.642;4.834;2022-11-14T11:34:30;125.33;;;115.63;;
35376;SDS011;21480;51.642;4.834;2022-11-14T11:36:58;124.07;;;114.43;;
35376;SDS011;21480;51.642;4.834;2022-11-14T11:39:40;127.03;;;117.13;;
35376;SDS011;21480;51.642;4.834;2022-11-14T11:42:12;126.90;;;116.90;;
35376;SDS011;21480;51.642;4.834;2022-11-14T11:44:47;126.47;;;116.70;;
35376;SDS011;21480;51.642;4.834;2022-11-14T11:47:17;126.70;;;116.80;;
35376;SDS011;21480;51.642;4.834;2022-11-14T11:49:46;126.57;;;116.97;;
35376;SDS011;21480;51.642;4.834;2022-11-14T11:52:18;126.33;;;116.53;;
35376;SDS011;21480;51.642;4.834;2022-11-14T12:00:34;125.73;;;116.00;;
35376;SDS011;21480;51.642;4.834;2022-11-14T12:03:00;128.47;;;117.80;;
35376;SDS011;21480;51.642;4.834;2022-11-14T12:05:30;126.60;;;116.83;;
35376;SDS011;21480;51.642;4.834;2022-11-14T12:08:03;126.57;;;116.80;;
35376;SDS011;21480;51.642;4.834;2022-11-14T12:10:36;127.60;;;117.87;;
35376;SDS011;21480;51.642;4.834;2022-11-14T12:27:42;127.07;;;117.27;;
35376;SDS011;21480;51.642;4.834;2022-11-14T12:30:13;126.43;;;116.67;;
35376;SDS011;21480;51.642;4.834;2022-11-14T12:33:09;127.73;;;117.90;;
35376;SDS011;21480;51.642;4.834;2022-11-14T12:35:34;127.23;;;117.23;;
35376;SDS011;21480;51.642;4.834;2022-11-14T12:38:02;126.53;;;117.03;;
35376;SDS011;21480;51.642;4.834;2022-11-14T12:43:29;127.33;;;117.53;;
35376;SDS011;21480;51.642;4.834;2022-11-14T12:45:58;127.07;;;117.47;;
35376;SDS011;21480;51.642;4.834;2022-11-14T12:50:54;129.40;;;119.33;;
35376;SDS011;21480;51.642;4.834;2022-11-14T12:56:19;127.93;;;118.03;;
35376;SDS011;21480;51.642;4.834;2022-11-14T13:07:04;127.63;;;118.07;;
35376;SDS011;21480;51.642;4.834;2022-11-14T13:10:10;128.40;;;118.63;;
35376;SDS011;21480;51.642;4.834;2022-11-14T13:15:50;128.30;;;118.43;;
35376;SDS011;21480;51.642;4.834;2022-11-14T13:27:30;128.97;;;119.00;;
35376;SDS011;21480;51.642;4.834;2022-11-14T13:29:57;128.77;;;118.87;;
35376;SDS011;21480;51.642;4.834;2022-11-14T13:51:41;128.27;;;118.47;;
35376;SDS011;21480;51.642;4.834;2022-11-14T13:54:14;126.80;;;117.17;;
35376;SDS011;21480;51.642;4.834;2022-11-14T14:05:08;126.60;;;116.93;;
35376;SDS011;21480;51.642;4.834;2022-11-14T14:21:47;125.40;;;115.77;;
35376;SDS011;21480;51.642;4.834;2022-11-14T14:24:30;126.17;;;116.33;;
35376;SDS011;21480;51.642;4.834;2022-11-14T14:27:44;126.97;;;117.27;;
35376;SDS011;21480;51.642;4.834;2022-11-14T14:30:22;125.23;;;115.80;;
35376;SDS011;21480;51.642;4.834;2022-11-14T14:35:33;125.90;;;116.20;;
35376;SDS011;21480;51.642;4.834;2022-11-14T14:38:00;127.10;;;117.10;;
35376;SDS011;21480;51.642;4.834;2022-11-14T14:40:27;127.70;;;117.67;;
35376;SDS011;21480;51.642;4.834;2022-11-14T14:42:59;129.37;;;118.97;;
35376;SDS011;21480;51.642;4.834;2022-11-14T14:45:27;129.87;;;118.43;;
35376;SDS011;21480;51.642;4.834;2022-11-14T14:48:01;128.50;;;118.30;;
35376;SDS011;21480;51.642;4.834;2022-11-14T14:53:01;129.40;;;119.00;;
35376;SDS011;21480;51.642;4.834;2022-11-14T14:55:29;128.23;;;117.57;;
35376;SDS011;21480;51.642;4.834;2022-11-14T14:58:42;129.07;;;118.50;;
35376;SDS011;21480;51.642;4.834;2022-11-14T15:00:53;129.83;;;119.33;;
35376;SDS011;21480;51.642;4.834;2022-11-14T15:03:35;131.93;;;121.03;;
35376;SDS011;21480;51.642;4.834;2022-11-14T15:06:43;129.87;;;119.17;;
35376;SDS011;21480;51.642;4.834;2022-11-14T15:09:09;130.97;;;120.37;;
35376;SDS011;21480;51.642;4.834;2022-11-14T15:11:47;129.50;;;118.43;;
35376;SDS011;21480;51.642;4.834;2022-11-14T15:14:16;129.73;;;119.23;;
35376;SDS011;21480;51.642;4.834;2022-11-14T15:16:46;128.27;;;117.27;;
35376;SDS011;21480;51.642;4.834;2022-11-14T15:19:15;130.50;;;119.83;;
35376;SDS011;21480;51.642;4.834;2022-11-14T15:21:44;129.83;;;118.97;;
35376;SDS011;21480;51.642;4.834;2022-11-14T15:24:17;130.77;;;119.47;;
35376;SDS011;21480;51.642;4.834;2022-11-14T15:26:44;129.93;;;118.53;;
35376;SDS011;21480;51.642;4.834;2022-11-14T15:29:24;131.67;;;120.70;;
35376;SDS011;21480;51.642;4.834;2022-11-14T15:31:57;132.10;;;120.87;;
35376;SDS011;21480;51.642;4.834;2022-11-14T15:39:39;136.20;;;124.00;;
35376;SDS011;21480;51.642;4.834;2022-11-14T15:44:45;132.57;;;121.20;;
35376;SDS011;21480;51.642;4.834;2022-11-14T15:47:12;133.63;;;122.30;;
35376;SDS011;21480;51.642;4.834;2022-11-14T15:49:58;134.67;;;123.13;;
35376;SDS011;21480;51.642;4.834;2022-11-14T15:55:07;133.90;;;122.30;;
35376;SDS011;21480;51.642;4.834;2022-11-14T15:57:41;133.10;;;121.23;;
35376;SDS011;21480;51.642;4.834;2022-11-14T16:00:10;132.47;;;120.90;;
35376;SDS011;21480;51.642;4.834;2022-11-14T16:02:40;134.37;;;122.50;;
35376;SDS011;21480;51.642;4.834;2022-11-14T16:05:18;131.90;;;120.30;;
35376;SDS011;21480;51.642;4.834;2022-11-14T16:07:48;133.33;;;121.40;;
35376;SDS011;21480;51.642;4.834;2022-11-14T16:10:15;135.03;;;122.83;;
35376;SDS011;21480;51.642;4.834;2022-11-14T16:12:42;132.23;;;120.60;;
35376;SDS011;21480;51.642;4.834;2022-11-14T16:15:08;133.70;;;122.17;;
35376;SDS011;21480;51.642;4.834;2022-11-14T16:17:35;131.60;;;120.27;;
35376;SDS011;21480;51.642;4.834;2022-11-14T16:20:03;132.07;;;120.43;;
35376;SDS011;21480;51.642;4.834;2022-11-14T16:22:30;135.60;;;123.80;;
35376;SDS011;21480;51.642;4.834;2022-11-14T16:24:57;135.43;;;123.33;;
35376;SDS011;21480;51.642;4.834;2022-11-14T16:27:24;135.27;;;122.93;;
35376;SDS011;21480;51.642;4.834;2022-11-14T16:29:50;135.27;;;123.17;;
35376;SDS011;21480;51.642;4.834;2022-11-14T16:32:16;137.97;;;125.30;;
35376;SDS011;21480;51.642;4.834;2022-11-14T16:34:42;134.80;;;122.63;;
35376;SDS011;21480;51.642;4.834;2022-11-14T16:37:09;136.00;;;123.50;;
35376;SDS011;21480;51.642;4.834;2022-11-14T16:39:37;134.43;;;122.67;;